Temp: 18.7°C   Baro: 1022.3mb
  Wind: 8.1mph   Dir: NW (304°)
  Rain: 0.0mm (0.0mm/hr)
  Solar: 214W/m2  Hum: 58%
 
Bath Spa Weather Station Historical Data
Daily Summary for March 2, 2020 Units:  Metric    English   Both
Daily Weekly Monthly Yearly Custom
  High: Low: Average:
Temperature: 18.6 °C 11.5 °C 14.6 °C
Dew Point: 14.3 °C 9.2 °C 12.1 °C
Humidity: 93.8% 73.2% 85%
Wind Speed: 18.2km/h 0km/h 7.4km/h
Wind Gust: 33.8km/h - -
Wind- - West
Pressure: 1016.5 hPa 1008.4 hPa -
Precipitation: 21.08 mm    
Historical Graphs
 
 
Tabular Data for March 2, 2020
Time Temperature Dew Point Pressure Wind Wind Speed Wind Gust Humidity Rainfall Rate (Hourly) solar
00:04 12.9 °C 10.3 °C 1008.4 hPa WNW 1.4 km/h 6.4 km/h 84% 0 mm 0 W/m2
00:09 12.9 °C 10.3 °C 1008.4 hPa West 2.9 km/h 8 km/h 84% 0 mm 0 W/m2
00:14 12.8 °C 10.2 °C 1008.4 hPa West 3.9 km/h 8 km/h 84% 0 mm 0 W/m2
00:19 12.8 °C 10.2 °C 1008.4 hPa WNW 3.4 km/h 4.8 km/h 84% 0 mm 0 W/m2
00:24 12.8 °C 10.2 °C 1008.4 hPa WNW 3.9 km/h 6.4 km/h 84% 0 mm 0 W/m2
00:29 12.9 °C 10.3 °C 1008.4 hPa WNW 3.2 km/h 6.4 km/h 84% 0 mm 0 W/m2
00:34 12.9 °C 10.3 °C 1008.4 hPa WNW 2.4 km/h 4.8 km/h 84% 0 mm 0 W/m2
00:39 12.9 °C 10.3 °C 1008.4 hPa WNW 2.3 km/h 6.4 km/h 84% 0 mm 0 W/m2
00:44 12.9 °C 10.3 °C 1008.4 hPa WNW 1.6 km/h 6.4 km/h 84% 0 mm 0 W/m2
00:49 12.8 °C 10.2 °C 1008.4 hPa WNW 2.1 km/h 4.8 km/h 84% 0 mm 0 W/m2
00:54 12.8 °C 10.2 °C 1008.4 hPa WNW 0.6 km/h 3.2 km/h 84% 0 mm 0 W/m2
00:59 12.8 °C 10.2 °C 1008.4 hPa Calm     84% 0 mm 0 W/m2
01:04 12.8 °C 10.2 °C 1008.4 hPa Calm   3.2 km/h 84% 0 mm 0 W/m2
01:09 12.8 °C 10.2 °C 1008.4 hPa WNW 0.6 km/h 3.2 km/h 84% 0 mm 0 W/m2
01:14 12.8 °C 10.2 °C 1008.4 hPa WNW 0.6 km/h 3.2 km/h 84% 0 mm 0 W/m2
01:19 12.7 °C 10.1 °C 1008.4 hPa WNW 1.9 km/h 4.8 km/h 84% 0 mm 0 W/m2
01:24 12.6 °C 10 °C 1008.4 hPa WNW 0.8 km/h 4.8 km/h 84% 0 mm 0 W/m2
01:34 12.6 °C 9.9 °C 1008.4 hPa WNW 0.6 km/h 3.2 km/h 84% 0 mm 0 W/m2
01:39 12.4 °C 9.8 °C 1008.4 hPa Calm   3.2 km/h 84% 0 mm 0 W/m2
01:44 12.3 °C 9.7 °C 1008.4 hPa WNW 2.9 km/h 4.8 km/h 84% 0 mm 0 W/m2
01:49 12.2 °C 9.6 °C 1008.4 hPa WNW 1.3 km/h 4.8 km/h 84% 0 mm 0 W/m2
01:54 12.1 °C 9.5 °C 1008.4 hPa WNW 2.3 km/h 4.8 km/h 84% 0 mm 0 W/m2
01:59 12.1 °C 9.7 °C 1008.4 hPa WNW 2.9 km/h 4.8 km/h 85% 0 mm 0 W/m2
02:04 11.8 °C 9.4 °C 1008.4 hPa WNW 0.6 km/h 3.2 km/h 85% 0 mm 0 W/m2
02:09 11.8 °C 9.3 °C 1008.4 hPa West 2.7 km/h 4.8 km/h 85% 0 mm 0 W/m2
02:14 11.7 °C 9.4 °C 1008.4 hPa Calm   4.8 km/h 85.6% 0 mm 0 W/m2
02:19 11.7 °C 9.4 °C 1008.4 hPa WSW 1.3 km/h 3.2 km/h 86% 0 mm 0 W/m2
02:24 11.6 °C 9.3 °C 1008.4 hPa WSW 1.9 km/h 4.8 km/h 86% 0 mm 0 W/m2
02:29 11.5 °C 9.2 °C 1008.4 hPa Calm   1.6 km/h 86% 0 mm 0 W/m2
02:34 11.5 °C 9.3 °C 1008.7 hPa WSW 0.3 km/h 3.2 km/h 86.8% 0 mm 0 W/m2
02:39 11.5 °C 9.4 °C 1008.7 hPa Calm   3.2 km/h 87% 0 mm 0 W/m2
02:44 11.5 °C 9.4 °C 1008.7 hPa Calm     87% 0 mm 0 W/m2
02:49 11.5 °C 9.4 °C 1008.7 hPa Calm     87% 0 mm 0 W/m2
02:54 11.6 °C 9.5 °C 1008.7 hPa Calm     87% 0 mm 0 W/m2
02:59 11.7 °C 9.6 °C 1008.7 hPa WSW 0.3 km/h 3.2 km/h 87.4% 0 mm 0 W/m2
03:04 11.7 °C 9.8 °C 1008.7 hPa WSW 1.3 km/h 4.8 km/h 88% 0 mm 0 W/m2
03:09 11.8 °C 9.9 °C 1008.4 hPa Calm   3.2 km/h 88% 0 mm 0 W/m2
03:14 11.8 °C 9.9 °C 1008.4 hPa Calm   1.6 km/h 88% 0 mm 0 W/m2
03:19 11.9 °C 10 °C 1008.4 hPa WSW 1.9 km/h 4.8 km/h 88% 0 mm 0 W/m2
03:24 11.9 °C 10 °C 1008.4 hPa WSW 2.7 km/h 4.8 km/h 88% 0 mm 0 W/m2
03:29 11.9 °C 10 °C 1008.4 hPa NW 1.9 km/h 8 km/h 88% 0 mm 0 W/m2
03:34 11.9 °C 10 °C 1008.4 hPa NNW 1.3 km/h 4.8 km/h 88% 0 mm 0 W/m2
03:39 11.9 °C 10 °C 1008.4 hPa NNW 4.8 km/h 8 km/h 88% 0 mm 0 W/m2
03:44 11.8 °C 10 °C 1008.4 hPa North 4 km/h 8 km/h 88% 0 mm 0 W/m2
03:49 11.8 °C 9.9 °C 1008.4 hPa NNW 6.6 km/h 9.7 km/h 88% 0 mm 0 W/m2
03:54 11.9 °C 10.1 °C 1008.4 hPa NW 2.7 km/h 8 km/h 88.6% 0 mm 0 W/m2
03:59 12 °C 10.2 °C 1008.4 hPa WNW 3.4 km/h 8 km/h 89% 0 mm 0 W/m2
04:04 11.9 °C 10.2 °C 1008.4 hPa West 3.2 km/h 6.4 km/h 89% 0 mm 0 W/m2
04:09 11.9 °C 10.1 °C 1008.4 hPa West 1.9 km/h 4.8 km/h 89% 0 mm 0 W/m2
04:14 12 °C 10.2 °C 1008.4 hPa WSW 2.7 km/h 8 km/h 89% 0 mm 0 W/m2
04:19 12 °C 10.2 °C 1008.4 hPa WSW 2.7 km/h 6.4 km/h 89% 0 mm 0 W/m2
04:24 12 °C 10.2 °C 1008.4 hPa WSW 2.4 km/h 6.4 km/h 89% 0 mm 0 W/m2
04:29 12.1 °C 10.3 °C 1008.4 hPa WSW 1.1 km/h 4.8 km/h 89% 0 mm 0 W/m2
04:34 12.1 °C 10.3 °C 1008.4 hPa Calm   4.8 km/h 89% 0 mm 0 W/m2
04:39 12.1 °C 10.3 °C 1008.4 hPa Calm     89% 0 mm 0 W/m2
04:44 12.1 °C 10.3 °C 1008.4 hPa WSW 1 km/h 4.8 km/h 89% 0 mm 0 W/m2
04:49 12.1 °C 10.3 °C 1008.4 hPa WSW 1.1 km/h 3.2 km/h 89% 0 mm 0 W/m2
04:54 12.1 °C 10.3 °C 1008.4 hPa WSW 1.3 km/h 6.4 km/h 89% 0 mm 0 W/m2
04:59 12.2 °C 10.4 °C 1008.4 hPa WSW 0.6 km/h 6.4 km/h 89% 0 mm 0 W/m2
05:04 12.2 °C 10.4 °C 1008.4 hPa WSW 0.3 km/h 4.8 km/h 89% 0 mm 0 W/m2
05:09 12.3 °C 10.5 °C 1008.4 hPa WSW 0.3 km/h 4.8 km/h 89% 0 mm 0 W/m2
05:14 12.3 °C 10.5 °C 1008.4 hPa WSW 2.9 km/h 8 km/h 89% 0.25 mm 0 W/m2
05:19 12.4 °C 10.6 °C 1008.4 hPa WSW 3.4 km/h 9.7 km/h 89% 0.25 mm 0 W/m2
05:24 12.4 °C 10.6 °C 1008.4 hPa WSW 2.7 km/h 6.4 km/h 89% 0.51 mm 0 W/m2
05:29 12.4 °C 10.6 °C 1008.4 hPa WSW 2.3 km/h 6.4 km/h 89% 0.51 mm 9 W/m2
05:34 12.4 °C 10.7 °C 1008.4 hPa WSW 0.3 km/h 4.8 km/h 89.4% 0.51 mm 11 W/m2
05:39 12.4 °C 10.8 °C 1008.4 hPa Calm     90% 0.51 mm 7 W/m2
05:48 12.4 °C 10.8 °C 1008.4 hPa WSW 2.7 km/h 9.7 km/h 90% 0.76 mm 7 W/m2
05:54 12.4 °C 10.8 °C 1008.4 hPa West 1.9 km/h 6.4 km/h 90% 0.76 mm 0 W/m2
05:59 12.4 °C 10.8 °C 1008.4 hPa West 1.3 km/h 6.4 km/h 90% 0.76 mm 5 W/m2
06:04 12.4 °C 10.8 °C 1008.7 hPa West 2.7 km/h 6.4 km/h 90% 1.02 mm 11 W/m2
06:09 12.4 °C 10.8 °C 1008.4 hPa WSW 3.5 km/h 9.7 km/h 90% 1.02 mm 18 W/m2
06:14 12.4 °C 10.8 °C 1008.7 hPa WSW 1.6 km/h 4.8 km/h 90.2% 1.02 mm 23 W/m2
06:19 12.4 °C 10.8 °C 1008.7 hPa WSW 2.1 km/h 9.7 km/h 90% 0.76 mm 37 W/m2
06:24 12.5 °C 11.1 °C 1008.7 hPa WSW 1.9 km/h 9.7 km/h 90.8% 0.76 mm 35 W/m2
06:29 12.6 °C 11.2 °C 1008.7 hPa WSW 3.2 km/h 6.4 km/h 91% 0.51 mm 37 W/m2
06:34 12.6 °C 11.2 °C 1008.7 hPa WSW 1.9 km/h 4.8 km/h 91% 0.51 mm 35 W/m2
06:39 12.6 °C 11.2 °C 1008.7 hPa WSW 0.6 km/h 6.4 km/h 91% 0.76 mm 28 W/m2
06:44 12.6 °C 11.2 °C 1008.7 hPa WSW 3.4 km/h 6.4 km/h 91% 0.76 mm 23 W/m2
06:49 12.7 °C 11.3 °C 1008.7 hPa WSW 1.9 km/h 4.8 km/h 91% 0.76 mm 14 W/m2
06:54 12.7 °C 11.3 °C 1008.7 hPa West 5.5 km/h 11.3 km/h 91% 0.76 mm 19 W/m2
06:59 12.7 °C 11.3 °C 1009 hPa West 1.8 km/h 4.8 km/h 91% 0.76 mm 25 W/m2
07:04 12.8 °C 11.4 °C 1008.7 hPa Calm   4.8 km/h 91% 1.27 mm 25 W/m2
07:09 12.8 °C 11.4 °C 1009 hPa WSW 2.6 km/h 8 km/h 91% 1.52 mm 37 W/m2
07:14 12.8 °C 11.4 °C 1009 hPa WSW 1.8 km/h 3.2 km/h 91% 2.29 mm 25 W/m2
07:19 12.8 °C 11.5 °C 1009 hPa WSW 2.6 km/h 6.4 km/h 91.6% 2.54 mm 16 W/m2
07:24 12.8 °C 11.5 °C 1009 hPa NW 4.5 km/h 9.7 km/h 92% 2.79 mm 21 W/m2
07:29 12.8 °C 11.5 °C 1009 hPa NW 4.8 km/h 9.7 km/h 92% 3.3 mm 25 W/m2
07:39 12.8 °C 11.5 °C 1009 hPa West 1.4 km/h 3.2 km/h 92% 3.81 mm 56 W/m2
07:44 12.8 °C 11.6 °C 1009 hPa West 1.9 km/h 3.2 km/h 92% 3.81 mm 70 W/m2
07:49 12.9 °C 11.6 °C 1009 hPa West 1.8 km/h 4.8 km/h 92% 4.83 mm 51 W/m2
07:54 12.9 °C 11.6 °C 1009 hPa West 3.2 km/h 8 km/h 92% 5.08 mm 26 W/m2
07:59 12.9 °C 11.6 °C 1009.4 hPa West 4 km/h 9.7 km/h 92% 5.33 mm 26 W/m2
08:04 13 °C 11.8 °C 1009.4 hPa West 5.1 km/h 11.3 km/h 92.6% 6.1 mm 56 W/m2
08:09 13 °C 11.9 °C 1009.4 hPa West 5.1 km/h 6.4 km/h 93% 6.1 mm 93 W/m2
08:14 13.1 °C 12 °C 1009.7 hPa West 0.8 km/h 6.4 km/h 93% 5.84 mm 84 W/m2
08:19 13.1 °C 12 °C 1009.7 hPa West 2.7 km/h 4.8 km/h 93% 6.6 mm 58 W/m2
08:24 13.2 °C 12.1 °C 1009.7 hPa West 3.2 km/h 9.7 km/h 93% 8.89 mm 77 W/m2
08:29 13.2 °C 12.1 °C 1009.7 hPa WNW 3.1 km/h 8 km/h 93% 11.18 mm 47 W/m2
08:34 13.1 °C 12 °C 1009.7 hPa WNW 3.2 km/h 8 km/h 93% 12.7 mm 35 W/m2
08:39 13.2 °C 12.1 °C 1009.7 hPa WNW 1.6 km/h 4.8 km/h 93% 12.95 mm 49 W/m2
08:44 13.2 °C 12.1 °C 1009.7 hPa WNW 3.2 km/h 6.4 km/h 93% 12.95 mm 98 W/m2
08:49 13.3 °C 12.2 °C 1009.7 hPa WNW 3.2 km/h 6.4 km/h 93% 12.7 mm 107 W/m2
08:54 13.3 °C 12.2 °C 1009.7 hPa WNW 1.4 km/h 4.8 km/h 93% 11.43 mm 120 W/m2
08:59 13.4 °C 12.3 °C 1009.7 hPa West 4.2 km/h 8 km/h 93% 10.92 mm 216 W/m2
09:04 13.6 °C 12.4 °C 1010 hPa West 4.3 km/h 11.3 km/h 93% 10.67 mm 359 W/m2
09:09 13.7 °C 12.7 °C 1010 hPa WSW 6 km/h 11.3 km/h 93.2% 9.65 mm 346 W/m2
09:19 14.1 °C 13 °C 1010 hPa West 11.3 km/h 20.9 km/h 93.8% 8.89 mm 506 W/m2
09:24 14.1 °C 13 °C 1010 hPa West 14.5 km/h 22.5 km/h 93% 7.11 mm 204 W/m2
09:29 13.9 °C 12.8 °C 1010 hPa West 10.5 km/h 22.5 km/h 93% 4.83 mm 60 W/m2
09:34 13.9 °C 12.8 °C 1010 hPa WNW 10 km/h 16.1 km/h 93% 2.29 mm 141 W/m2
09:39 13.8 °C 12.8 °C 1010 hPa WNW 9 km/h 17.7 km/h 93% 1.02 mm 155 W/m2
09:44 13.7 °C 12.7 °C 1010.4 hPa WNW 10.8 km/h 25.7 km/h 93% 1.52 mm 234 W/m2
09:49 13.7 °C 12.6 °C 1010.4 hPa NW 8 km/h 16.1 km/h 93% 1.78 mm 232 W/m2
09:54 13.7 °C 12.6 °C 1010.4 hPa West 7.6 km/h 16.1 km/h 93% 2.29 mm 153 W/m2
09:59 13.7 °C 12.6 °C 1010.4 hPa WNW 9.3 km/h 19.3 km/h 93% 2.29 mm 371 W/m2
10:04 13.7 °C 12.6 °C 1010.4 hPa West 13.2 km/h 24.1 km/h 93% 2.29 mm 373 W/m2
10:09 13.9 °C 12.8 °C 1010.4 hPa West 12.7 km/h 24.1 km/h 93% 2.29 mm 499 W/m2
10:14 14.1 °C 12.9 °C 1010.4 hPa West 9.5 km/h 22.5 km/h 93% 2.29 mm 415 W/m2
10:19 14.1 °C 12.9 °C 1010.4 hPa West 11.1 km/h 20.9 km/h 93% 2.29 mm 248 W/m2
10:24 14.1 °C 12.9 °C 1010.4 hPa West 13.5 km/h 22.5 km/h 93% 2.29 mm 174 W/m2
10:29 14.1 °C 13 °C 1010.4 hPa West 13.5 km/h 29 km/h 93% 2.29 mm 158 W/m2
10:34 13.9 °C 12.8 °C 1010.7 hPa West 16.9 km/h 29 km/h 93% 1.52 mm 137 W/m2
10:39 13.8 °C 12.7 °C 1010.7 hPa WNW 14 km/h 30.6 km/h 93% 1.52 mm 171 W/m2
10:44 13.7 °C 12.6 °C 1010.7 hPa West 14.3 km/h 27.4 km/h 93% 1.27 mm 149 W/m2
10:49 13.6 °C 12.5 °C 1010.7 hPa West 13.2 km/h 25.7 km/h 93% 1.02 mm 132 W/m2
10:54 13.6 °C 12.5 °C 1010.7 hPa West 10.6 km/h 19.3 km/h 93% 0.76 mm 109 W/m2
10:59 13.7 °C 12.6 °C 1010.7 hPa WNW 7.1 km/h 14.5 km/h 93% 0.76 mm 111 W/m2
11:04 13.7 °C 12.6 °C 1011.1 hPa West 14.2 km/h 22.5 km/h 93% 0.76 mm 158 W/m2
11:09 13.7 °C 12.7 °C 1011.1 hPa West 8.7 km/h 20.9 km/h 93% 0.76 mm 232 W/m2
11:14 13.8 °C 12.7 °C 1011.1 hPa West 6.4 km/h 17.7 km/h 93% 0.76 mm 239 W/m2
11:19 14 °C 12.9 °C 1011.1 hPa West 9.7 km/h 17.7 km/h 93% 0.76 mm 385 W/m2
11:24 14.2 °C 13.1 °C 1011.1 hPa West 10.3 km/h 24.1 km/h 93% 0.76 mm 381 W/m2
11:29 14.3 °C 13.2 °C 1011.1 hPa WNW 9.2 km/h 24.1 km/h 93% 0.76 mm 297 W/m2
11:34 14.2 °C 13.1 °C 1011.1 hPa WSW 12.6 km/h 22.5 km/h 93% 0.76 mm 163 W/m2
11:39 14.1 °C 12.8 °C 1011.4 hPa WNW 8 km/h 22.5 km/h 92% 1.27 mm 139 W/m2
11:44 14.1 °C 12.8 °C 1011.4 hPa West 7.2 km/h 11.3 km/h 92% 1.02 mm 329 W/m2
11:49 14.4 °C 13.1 °C 1011.4 hPa West 12.9 km/h 19.3 km/h 92% 0.76 mm 874 W/m2
11:54 14.8 °C 13.6 °C 1011.4 hPa WNW 12.4 km/h 20.9 km/h 92.4% 0.51 mm 874 W/m2
11:59 14.8 °C 13.5 °C 1011.4 hPa WNW 12.7 km/h 24.1 km/h 92% 0.51 mm 330 W/m2
12:04 14.8 °C 13.3 °C 1011.4 hPa WNW 12.2 km/h 24.1 km/h 91.2% 0.51 mm 424 W/m2
12:09 14.9 °C 13.4 °C 1011.4 hPa West 7.7 km/h 20.9 km/h 90.8% 0.51 mm 302 W/m2
12:14 15.4 °C 13.8 °C 1011.7 hPa West 13.8 km/h 24.1 km/h 90.4% 0.51 mm 617 W/m2
12:19 15.4 °C 13.8 °C 1011.7 hPa WNW 10.1 km/h 24.1 km/h 90% 0.51 mm 566 W/m2
12:24 15.4 °C 13.6 °C 1011.7 hPa West 8.2 km/h 17.7 km/h 89% 0.51 mm 436 W/m2
12:29 15.7 °C 13.8 °C 1011.7 hPa West 7.2 km/h 17.7 km/h 88.6% 0.51 mm 413 W/m2
12:34 15.8 °C 13.8 °C 1011.7 hPa West 11.3 km/h 22.5 km/h 88% 0.51 mm 497 W/m2
12:39 16.1 °C 14 °C 1011.7 hPa West 12.6 km/h 24.1 km/h 87.6% 0.25 mm 352 W/m2
12:44 15.9 °C 13.6 °C 1011.7 hPa West 16.1 km/h 25.7 km/h 86.2% 0 mm 313 W/m2
12:49 15.8 °C 13.5 °C 1011.7 hPa West 15.8 km/h 24.1 km/h 86% 0 mm 431 W/m2
12:54 15.8 °C 13.4 °C 1011.7 hPa WNW 17.5 km/h 25.7 km/h 85.4% 0 mm 561 W/m2
12:59 15.9 °C 13.4 °C 1011.7 hPa WNW 15.4 km/h 25.7 km/h 85% 0 mm 664 W/m2
13:04 16.2 °C 13.6 °C 1011.7 hPa WNW 16.4 km/h 25.7 km/h 84.4% 0 mm 621 W/m2
13:09 16.2 °C 13.2 °C 1011.7 hPa WNW 17.7 km/h 25.7 km/h 82.6% 0 mm 480 W/m2
13:14 16.3 °C 13.2 °C 1011.7 hPa WNW 12.9 km/h 24.1 km/h 81.8% 0 mm 424 W/m2
13:19 16.6 °C 13.4 °C 1011.7 hPa WNW 7.6 km/h 20.9 km/h 82% 0 mm 401 W/m2
13:24 16.5 °C 13.4 °C 1012.1 hPa WNW 15.4 km/h 29 km/h 82.2% 0 mm 424 W/m2
13:29 16.3 °C 13.3 °C 1012.1 hPa WNW 15.3 km/h 25.7 km/h 82.2% 0 mm 972 W/m2
13:34 16.8 °C 13.8 °C 1012.1 hPa WNW 14.5 km/h 25.7 km/h 82.2% 0 mm 1195 W/m2
13:39 17.1 °C 13.7 °C 1012.1 hPa NW 9 km/h 32.2 km/h 80.4% 0 mm 1195 W/m2
13:44 16.8 °C 13.1 °C 1012.1 hPa WNW 15.4 km/h 24.1 km/h 79.2% 0 mm 417 W/m2
13:49 16.8 °C 13.3 °C 1012.1 hPa West 13.2 km/h 27.4 km/h 80% 0 mm 364 W/m2
13:54 16.9 °C 13.3 °C 1012.1 hPa West 11.7 km/h 25.7 km/h 79.6% 0 mm 710 W/m2
13:59 16.9 °C 13.3 °C 1012.1 hPa WNW 12.9 km/h 33.8 km/h 79.4% 0 mm 418 W/m2
14:04 17 °C 13.4 °C 1012.1 hPa WNW 10 km/h 27.4 km/h 79.8% 0 mm 418 W/m2
14:09 17.1 °C 13.5 °C 1012.1 hPa WNW 13.7 km/h 24.1 km/h 79.6% 0 mm 439 W/m2
14:14 17.1 °C 13.4 °C 1012.1 hPa WNW 11.4 km/h 20.9 km/h 79% 0 mm 469 W/m2
14:19 17.2 °C 13.5 °C 1012.1 hPa WNW 14.2 km/h 27.4 km/h 79% 0 mm 466 W/m2
14:24 17.1 °C 13.4 °C 1012.1 hPa WNW 16.1 km/h 27.4 km/h 79.4% 0 mm 462 W/m2
14:29 17 °C 13.3 °C 1012.4 hPa West 15.1 km/h 20.9 km/h 79% 0 mm 606 W/m2
14:34 17.3 °C 13.6 °C 1012.4 hPa WNW 11.3 km/h 22.5 km/h 78.4% 0 mm 657 W/m2
14:39 17.8 °C 13.8 °C 1012.4 hPa West 8.4 km/h 19.3 km/h 77% 0 mm 657 W/m2
14:44 17.8 °C 13.6 °C 1012.4 hPa West 11.9 km/h 24.1 km/h 76.6% 0 mm 343 W/m2
14:49 17.7 °C 13.6 °C 1012.4 hPa West 11.3 km/h 22.5 km/h 77% 0 mm 394 W/m2
14:54 17.8 °C 13.7 °C 1012.4 hPa West 10.6 km/h 24.1 km/h 77% 0 mm 380 W/m2
14:59 17.8 °C 13.6 °C 1012.4 hPa WNW 11.9 km/h 30.6 km/h 76.6% 0 mm 327 W/m2
15:04 17.6 °C 13.3 °C 1012.4 hPa WNW 11.3 km/h 20.9 km/h 76.2% 0 mm 366 W/m2
15:09 17.7 °C 13.6 °C 1012.4 hPa West 14.8 km/h 24.1 km/h 77.2% 0 mm 373 W/m2
15:14 17.8 °C 13.8 °C 1012.4 hPa West 10.6 km/h 22.5 km/h 77.8% 0 mm 403 W/m2
15:19 17.7 °C 13.7 °C 1012.4 hPa West 13.8 km/h 24.1 km/h 77% 0 mm 642 W/m2
15:24 17.7 °C 13.6 °C 1012.8 hPa West 16.7 km/h 27.4 km/h 77% 0 mm 642 W/m2
15:29 17.7 °C 13.7 °C 1012.8 hPa West 10.8 km/h 19.3 km/h 77.4% 0 mm 258 W/m2
15:34 17.5 °C 13.5 °C 1012.8 hPa WNW 14.8 km/h 24.1 km/h 77.4% 0 mm 294 W/m2
15:39 17.4 °C 13.6 °C 1012.8 hPa WNW 14.2 km/h 24.1 km/h 78% 0 mm 292 W/m2
15:44 17.4 °C 13.5 °C 1012.8 hPa West 12.1 km/h 20.9 km/h 78% 0 mm 253 W/m2
15:49 17.4 °C 13.6 °C 1012.8 hPa West 12.6 km/h 20.9 km/h 78.2% 0 mm 290 W/m2
15:54 17.6 °C 13.8 °C 1012.8 hPa WNW 12.2 km/h 22.5 km/h 78.4% 0 mm 325 W/m2
15:59 17.6 °C 13.7 °C 1012.8 hPa West 10.3 km/h 19.3 km/h 78% 0 mm 418 W/m2
16:04 17.7 °C 13.9 °C 1012.8 hPa WNW 8.2 km/h 17.7 km/h 78.6% 0 mm 462 W/m2
16:09 18.1 °C 14.3 °C 1012.8 hPa WNW 7.4 km/h 17.7 km/h 78.4% 0 mm 438 W/m2
16:14 18.1 °C 14.1 °C 1012.8 hPa West 13.5 km/h 24.1 km/h 77.4% 0 mm 380 W/m2
16:19 17.8 °C 13.7 °C 1012.8 hPa West 7.6 km/h 24.1 km/h 77% 0 mm 357 W/m2
16:24 17.8 °C 13.7 °C 1012.8 hPa WNW 12.4 km/h 24.1 km/h 77% 0 mm 339 W/m2
16:29 17.7 °C 13.7 °C 1012.8 hPa WNW 12.4 km/h 20.9 km/h 77% 0 mm 315 W/m2
16:34 17.7 °C 13.6 °C 1012.8 hPa WNW 13.8 km/h 22.5 km/h 77% 0 mm 373 W/m2
16:39 17.7 °C 13.5 °C 1012.8 hPa WNW 12.6 km/h 22.5 km/h 76.2% 0 mm 338 W/m2
16:43 17.8 °C 13.7 °C 1012.8 hPa West 10.5 km/h 22.5 km/h 76.8% 0 mm 485 W/m2
16:49 18.1 °C 13.9 °C 1012.8 hPa West 14.2 km/h 25.7 km/h 76.8% 0 mm 926 W/m2
16:54 18.2 °C 13.9 °C 1013.1 hPa WNW 13.2 km/h 25.7 km/h 76% 0 mm 926 W/m2
16:59 18.3 °C 13.9 °C 1013.1 hPa West 18.2 km/h 27.4 km/h 75.4% 0 mm 840 W/m2
17:04 18.3 °C 13.8 °C 1013.1 hPa WNW 12.6 km/h 27.4 km/h 75% 0 mm 675 W/m2
17:09 18.2 °C 13.7 °C 1013.1 hPa WNW 11.7 km/h 24.1 km/h 75% 0 mm 318 W/m2
17:14 18.2 °C 13.9 °C 1013.1 hPa West 8.4 km/h 22.5 km/h 76% 0 mm 708 W/m2
17:19 18.6 °C 14.2 °C 1013.1 hPa WNW 14.8 km/h 29 km/h 75.6% 0 mm 677 W/m2
17:24 18.2 °C 13.8 °C 1013.1 hPa West 11.3 km/h 25.7 km/h 75.6% 0 mm 353 W/m2
17:29 18.3 °C 13.9 °C 1013.1 hPa WNW 14.2 km/h 24.1 km/h 75.6% 0 mm 726 W/m2
17:34 18.4 °C 13.9 °C 1013.1 hPa West 15.3 km/h 27.4 km/h 75.2% 0 mm 666 W/m2
17:39 18.3 °C 13.9 °C 1013.1 hPa West 15.8 km/h 22.5 km/h 76% 0 mm 339 W/m2
17:44 18 °C 13.7 °C 1013.1 hPa WNW 11.3 km/h 24.1 km/h 75.8% 0 mm 371 W/m2
17:49 17.9 °C 13.6 °C 1013.4 hPa WNW 15.8 km/h 29 km/h 76% 0 mm 343 W/m2
17:54 17.9 °C 13.7 °C 1013.4 hPa WNW 13.2 km/h 19.3 km/h 76.6% 0 mm 529 W/m2
17:59 18.2 °C 14.1 °C 1013.4 hPa WNW 11.9 km/h 22.5 km/h 77% 0 mm 577 W/m2
18:04 18.5 °C 14.1 °C 1013.4 hPa West 14.8 km/h 24.1 km/h 75.2% 0 mm 547 W/m2
18:09 18.3 °C 13.8 °C 1013.4 hPa WNW 11.4 km/h 25.7 km/h 74.8% 0 mm 497 W/m2
18:14 18 °C 13.6 °C 1013.4 hPa WNW 13.8 km/h 19.3 km/h 75.6% 0 mm 132 W/m2
18:19 17.6 °C 13.3 °C 1013.4 hPa WNW 15.6 km/h 22.5 km/h 75.8% 0 mm 105 W/m2
18:24 17.4 °C 13.3 °C 1013.8 hPa WNW 9 km/h 20.9 km/h 76.8% 0 mm 128 W/m2
18:29 17.3 °C 13.2 °C 1013.8 hPa West 9 km/h 17.7 km/h 77% 0 mm 193 W/m2
18:34 17.3 °C 13.2 °C 1013.8 hPa West 10.6 km/h 16.1 km/h 77.4% 0 mm 130 W/m2
18:39 17.2 °C 13.3 °C 1013.8 hPa NW 6.8 km/h 14.5 km/h 78% 0 mm 148 W/m2
18:44 17.3 °C 13.3 °C 1013.8 hPa West 9.2 km/h 19.3 km/h 78% 0 mm 151 W/m2
18:49 17.3 °C 13.4 °C 1014.1 hPa NW 6.4 km/h 19.3 km/h 78% 0 mm 388 W/m2
18:54 17.7 °C 13.7 °C 1013.8 hPa WSW 9.7 km/h 17.7 km/h 77.6% 0 mm 396 W/m2
18:59 18.1 °C 13.9 °C 1014.1 hPa West 8.4 km/h 14.5 km/h 76.6% 0 mm 392 W/m2
19:04 18 °C 13.5 °C 1014.1 hPa West 8.9 km/h 16.1 km/h 75% 0 mm 276 W/m2
19:09 18.1 °C 13.7 °C 1014.1 hPa West 8.7 km/h 14.5 km/h 75.2% 0 mm 341 W/m2
19:14 18.2 °C 13.6 °C 1014.1 hPa WNW 12.1 km/h 19.3 km/h 74.2% 0 mm 281 W/m2
19:19 18.1 °C 13.3 °C 1014.1 hPa WNW 9.8 km/h 24.1 km/h 73.2% 0 mm 248 W/m2
19:24 18 °C 13.3 °C 1014.1 hPa WNW 12.6 km/h 20.9 km/h 74% 0 mm 243 W/m2
19:29 17.8 °C 13.1 °C 1014.4 hPa West 9.7 km/h 24.1 km/h 74% 0 mm 181 W/m2
19:34 17.6 °C 13.1 °C 1014.4 hPa West 12.6 km/h 24.1 km/h 75% 0 mm 199 W/m2
19:39 17.6 °C 13.1 °C 1014.4 hPa West 11.1 km/h 22.5 km/h 75% 0 mm 195 W/m2
19:44 17.5 °C 13 °C 1014.4 hPa West 13.2 km/h 20.9 km/h 75% 0 mm 167 W/m2
19:49 17.4 °C 12.9 °C 1014.4 hPa WNW 10 km/h 20.9 km/h 75% 0 mm 160 W/m2
19:54 17.3 °C 12.8 °C 1014.4 hPa WNW 11.6 km/h 20.9 km/h 75% 0 mm 158 W/m2
19:59 17.2 °C 12.7 °C 1014.8 hPa WNW 7.7 km/h 19.3 km/h 75% 0 mm 144 W/m2
20:04 17.1 °C 12.6 °C 1014.8 hPa WNW 11.7 km/h 20.9 km/h 75% 0 mm 120 W/m2
20:09 16.8 °C 12.3 °C 1014.8 hPa WNW 14.5 km/h 20.9 km/h 75.2% 0 mm 104 W/m2
20:14 16.7 °C 12.4 °C 1014.8 hPa WNW 11.4 km/h 17.7 km/h 76% 0 mm 98 W/m2
20:19 16.6 °C 12.4 °C 1014.8 hPa West 10.6 km/h 22.5 km/h 76% 0 mm 98 W/m2
20:24 16.6 °C 12.4 °C 1014.8 hPa West 10.6 km/h 25.7 km/h 76% 0 mm 88 W/m2
20:29 16.5 °C 12.3 °C 1014.8 hPa West 7.6 km/h 25.7 km/h 76% 0 mm 70 W/m2
20:34 16.5 °C 12.3 °C 1014.8 hPa WNW 7.2 km/h 16.1 km/h 76% 0 mm 65 W/m2
20:39 16.3 °C 12.2 °C 1015.1 hPa WNW 10 km/h 19.3 km/h 76.4% 0 mm 51 W/m2
20:44 16.2 °C 12.2 °C 1015.1 hPa West 11.9 km/h 19.3 km/h 77% 0 mm 44 W/m2
20:49 16.1 °C 12.2 °C 1015.1 hPa WNW 6.6 km/h 16.1 km/h 77.6% 0 mm 37 W/m2
20:54 15.8 °C 12.1 °C 1015.1 hPa WNW 9 km/h 17.7 km/h 78% 0 mm 28 W/m2
20:59 15.7 °C 11.9 °C 1015.1 hPa NW 7.1 km/h 17.7 km/h 78.4% 0 mm 23 W/m2
21:04 15.4 °C 11.8 °C 1015.1 hPa NW 9.5 km/h 19.3 km/h 79% 0 mm 18 W/m2
21:09 15.3 °C 11.8 °C 1015.1 hPa WNW 6.3 km/h 14.5 km/h 79.8% 0 mm 14 W/m2
21:14 15.2 °C 11.9 °C 1015.1 hPa NW 6 km/h 14.5 km/h 80.6% 0 mm 11 W/m2
21:19 15.1 °C 11.9 °C 1015.5 hPa NW 7.1 km/h 12.9 km/h 81% 0 mm 9 W/m2
21:24 14.9 °C 11.8 °C 1015.5 hPa WNW 9.7 km/h 16.1 km/h 81.4% 0 mm 5 W/m2
21:29 14.8 °C 11.8 °C 1015.5 hPa WNW 6.9 km/h 14.5 km/h 82% 0 mm 0 W/m2
21:34 14.7 °C 11.8 °C 1015.8 hPa NW 8.9 km/h 14.5 km/h 82.8% 0 mm 0 W/m2
21:39 14.6 °C 11.8 °C 1015.8 hPa WNW 10.3 km/h 16.1 km/h 83.2% 0 mm 0 W/m2
21:44 14.5 °C 11.7 °C 1015.8 hPa WNW 5.8 km/h 16.1 km/h 83.8% 0 mm 0 W/m2
21:49 14.4 °C 11.7 °C 1016.1 hPa WNW 5 km/h 9.7 km/h 84% 0 mm 0 W/m2
21:54 14.3 °C 11.7 °C 1016.1 hPa NW 7.7 km/h 14.5 km/h 84.8% 0 mm 0 W/m2
21:59 14.2 °C 11.7 °C 1016.1 hPa NW 9.3 km/h 14.5 km/h 85% 0 mm 0 W/m2
22:04 14.1 °C 11.6 °C 1016.1 hPa WNW 8.2 km/h 12.9 km/h 85% 0 mm 0 W/m2
22:09 14.1 °C 11.6 °C 1016.1 hPa WNW 7.1 km/h 12.9 km/h 85% 0 mm 0 W/m2
22:14 13.9 °C 11.4 °C 1016.1 hPa WNW 6 km/h 14.5 km/h 85% 0 mm 0 W/m2
22:19 13.8 °C 11.3 °C 1016.1 hPa WNW 5.8 km/h 12.9 km/h 85% 0 mm 0 W/m2
22:24 13.8 °C 11.3 °C 1016.1 hPa WNW 4.7 km/h 11.3 km/h 85% 0 mm 0 W/m2
22:29 13.7 °C 11.3 °C 1016.1 hPa WNW 5.6 km/h 12.9 km/h 85.6% 0 mm 0 W/m2
22:34 13.7 °C 11.3 °C 1016.5 hPa WNW 4.3 km/h 8 km/h 86% 0 mm 0 W/m2
22:39 13.6 °C 11.2 °C 1016.5 hPa WNW 6.4 km/h 11.3 km/h 86% 0 mm 0 W/m2
22:44 13.4 °C 11.2 °C 1016.5 hPa WNW 7.2 km/h 14.5 km/h 86% 0 mm 0 W/m2
22:49 13.4 °C 11.2 °C 1016.5 hPa WNW 6.4 km/h 12.9 km/h 86.3% 0 mm 0 W/m2
22:54 13.4 °C 11.3 °C 1016.5 hPa WNW 6.1 km/h 9.7 km/h 87% 0 mm 0 W/m2
22:59 13.3 °C 11.2 °C 1016.5 hPa West 6.1 km/h 11.3 km/h 87% 0 mm 0 W/m2
23:04 13.2 °C 11.1 °C 1016.5 hPa WNW 6.1 km/h 11.3 km/h 87% 0 mm 0 W/m2
23:09 13.2 °C 11.1 °C 1016.5 hPa WNW 6.4 km/h 12.9 km/h 87% 0 mm 0 W/m2
23:14 13.1 °C 11 °C 1016.5 hPa WNW 7.1 km/h 12.9 km/h 87% 0 mm 0 W/m2
23:19 13.1 °C 11 °C 1016.5 hPa WNW 7.4 km/h 12.9 km/h 87% 0 mm 0 W/m2
23:24 13.1 °C 11 °C 1016.5 hPa WNW 5.8 km/h 16.1 km/h 87% 0 mm 0 W/m2
23:29 13.1 °C 11.1 °C 1016.5 hPa NW 4.8 km/h 14.5 km/h 87.3% 0 mm 0 W/m2
23:34 13.1 °C 11.1 °C 1016.5 hPa WNW 7.1 km/h 12.9 km/h 87.2% 0 mm 0 W/m2
23:39 13.1 °C 11 °C 1016.5 hPa WNW 5.6 km/h 11.3 km/h 87% 0 mm 0 W/m2
23:44 13 °C 10.9 °C 1016.5 hPa WNW 6 km/h 11.3 km/h 87% 0 mm 0 W/m2
23:49 13 °C 10.9 °C 1016.5 hPa West 3.9 km/h 11.3 km/h 87% 0 mm 0 W/m2
23:54 12.9 °C 10.8 °C 1016.5 hPa West 2.9 km/h 6.4 km/h 87% 0 mm 0 W/m2
23:59 12.9 °C 10.8 °C 1016.5 hPa West 2.4 km/h 6.4 km/h 87% 0 mm 0 W/m2
Bath Spa Weather
Compliments of Weather Underground - 2 mb